Time;durP1;ratioP1;P1;durP2;ratioP2;P2;SDS_P1;SDS_P2;PMS_P1;PMS_P2;Temp;Humidity;BMP_temperature;BMP_pressure;BME280_temperature;BME280_humidity;BME280_pressure;Samples;Min_cycle;Max_cycle;Signal;HPM_P1;HPM_P2
2021/12/13 00:01:45;;;;;;;9.13;4.18;;;7.30;94.80;;;;;;5042738;28;20463;-49
2021/12/13 00:04:31;;;;;;;7.35;3.67;;;7.30;94.80;;;;;;5040508;28;20291;-49
2021/12/13 00:07:20;;;;;;;10.65;3.60;;;7.30;94.80;;;;;;5030746;28;20075;-49
2021/12/13 00:09:49;;;;;;;7.15;3.97;;;7.30;94.90;;;;;;5038548;28;20333;-49
2021/12/13 00:12:28;;;;;;;12.27;4.80;;;7.30;94.90;;;;;;5042309;28;20036;-50
2021/12/13 00:14:55;;;;;;;5.47;2.72;;;7.30;95.00;;;;;;5036077;28;20060;-50
2021/12/13 00:17:25;;;;;;;7.28;3.75;;;7.30;95.00;;;;;;5037852;28;20040;-49
2021/12/13 00:20:05;;;;;;;6.45;3.42;;;7.30;95.10;;;;;;5042273;28;20034;-49
2021/12/13 00:22:39;;;;;;;8.02;3.55;;;7.30;95.00;;;;;;5031063;28;20096;-49
2021/12/13 00:25:08;;;;;;;4.68;2.85;;;7.30;95.10;;;;;;5039178;28;20088;-50
2021/12/13 00:27:43;;;;;;;7.28;3.80;;;7.40;95.10;;;;;;5034007;28;20037;-50
2021/12/13 00:30:25;;;;;;;10.30;4.65;;;7.30;95.10;;;;;;5034394;28;20112;-50
2021/12/13 00:33:14;;;;;;;8.40;3.78;;;7.40;95.20;;;;;;5037564;28;20458;-49
2021/12/13 00:35:59;;;;;;;7.35;4.07;;;7.30;95.20;;;;;;5038549;28;20017;-49
2021/12/13 00:38:28;;;;;;;11.13;4.00;;;7.30;95.30;;;;;;5034872;28;20128;-49
2021/12/13 00:41:01;;;;;;;7.68;3.60;;;7.30;95.30;;;;;;5028560;28;20032;-49
2021/12/13 00:43:42;;;;;;;7.15;2.90;;;7.30;95.30;;;;;;5032803;28;20051;-50
2021/12/13 00:46:11;;;;;;;7.70;3.85;;;7.30;95.30;;;;;;5041645;28;20017;-50
2021/12/13 00:48:42;;;;;;;8.67;3.63;;;7.30;95.40;;;;;;5036795;28;20489;-50
2021/12/13 00:51:16;;;;;;;6.57;3.33;;;7.40;95.50;;;;;;5035378;28;20371;-50
2021/12/13 00:53:47;;;;;;;6.13;3.03;;;7.40;95.40;;;;;;5043017;28;20124;-49
2021/12/13 00:56:41;;;;;;;11.57;3.70;;;7.30;95.50;;;;;;5036227;28;20032;-49
2021/12/13 00:59:07;;;;;;;12.00;3.30;;;7.40;95.50;;;;;;5037532;28;20026;-49
2021/12/13 01:01:34;;;;;;;7.55;3.83;;;7.40;95.60;;;;;;5039387;28;20036;-49
2021/12/13 01:04:05;;;;;;;7.75;3.65;;;7.40;95.60;;;;;;5040890;28;20025;-49
2021/12/13 01:07:08;;;;;;;6.35;3.55;;;7.40;95.60;;;;;;5035127;28;20037;-49
2021/12/13 01:09:52;;;;;;;9.00;3.92;;;7.40;95.60;;;;;;5037921;28;20029;-49
2021/12/13 01:12:20;;;;;;;7.95;3.72;;;7.40;95.60;;;;;;5035492;28;20028;-50
2021/12/13 01:15:11;;;;;;;7.63;4.00;;;7.40;95.70;;;;;;5039331;28;20394;-49
2021/12/13 01:18:04;;;;;;;7.88;4.07;;;7.40;95.70;;;;;;5035988;28;20127;-49
2021/12/13 01:20:55;;;;;;;7.57;4.28;;;7.40;95.70;;;;;;5037574;28;20105;-49
2021/12/13 01:23:38;;;;;;;5.78;3.42;;;7.40;95.70;;;;;;5032828;28;20026;-50
2021/12/13 01:26:26;;;;;;;6.90;3.47;;;7.40;95.70;;;;;;5032267;28;20049;-49
2021/12/13 01:28:56;;;;;;;6.63;3.78;;;7.40;95.80;;;;;;5032527;28;20124;-49
2021/12/13 01:31:39;;;;;;;8.52;3.83;;;7.40;95.90;;;;;;5035931;28;20484;-50
2021/12/13 01:34:08;;;;;;;12.68;4.40;;;7.40;95.80;;;;;;5030454;28;20021;-49
2021/12/13 01:36:45;;;;;;;8.02;3.60;;;7.40;95.90;;;;;;5034076;28;20109;-50
2021/12/13 01:39:20;;;;;;;6.45;3.25;;;7.40;95.90;;;;;;5035651;28;20040;-49
2021/12/13 01:41:59;;;;;;;7.75;3.42;;;7.40;95.90;;;;;;5034593;28;20021;-49
2021/12/13 01:44:31;;;;;;;7.22;3.42;;;7.40;96.00;;;;;;5034509;28;20034;-49
2021/12/13 01:47:03;;;;;;;6.70;4.13;;;7.40;96.00;;;;;;5034088;28;20052;-50
2021/12/13 01:49:54;;;;;;;6.22;3.55;;;7.40;96.00;;;;;;5038115;28;20083;-49
2021/12/13 01:52:27;;;;;;;8.10;3.45;;;7.40;96.00;;;;;;5008992;28;20089;-50
2021/12/13 01:54:56;;;;;;;5.80;3.33;;;7.40;96.00;;;;;;5016744;28;20105;-50
2021/12/13 01:57:39;;;;;;;6.05;2.88;;;7.40;96.10;;;;;;5019213;28;20037;-49
2021/12/13 02:00:17;;;;;;;6.57;2.90;;;7.40;96.10;;;;;;5019171;28;20077;-50
2021/12/13 02:02:46;;;;;;;5.68;2.90;;;7.40;96.10;;;;;;5013926;28;20034;-50
2021/12/13 02:05:23;;;;;;;5.05;2.83;;;7.40;96.10;;;;;;5016485;28;20064;-50
2021/12/13 02:07:48;;;;;;;6.13;3.30;;;7.40;96.10;;;;;;5011342;28;20037;-50
2021/12/13 02:10:26;;;;;;;8.75;3.03;;;7.40;96.10;;;;;;5023260;28;20056;-49
2021/12/13 02:12:57;;;;;;;5.82;2.95;;;7.40;96.20;;;;;;5022523;28;20075;-49
2021/12/13 02:18:15;;;;;;;5.88;3.38;;;7.50;96.10;;;;;;5017864;28;20044;-50
2021/12/13 02:20:46;;;;;;;8.38;3.17;;;7.50;96.20;;;;;;5017392;28;20037;-49
2021/12/13 02:23:12;;;;;;;5.82;3.53;;;7.50;96.20;;;;;;5013633;28;20060;-50
2021/12/13 02:25:43;;;;;;;4.35;2.85;;;7.40;96.20;;;;;;5020210;28;20022;-49
2021/12/13 02:28:14;;;;;;;8.52;3.58;;;7.50;96.30;;;;;;5018266;28;20033;-50
2021/12/13 02:30:56;;;;;;;6.45;3.17;;;7.50;96.30;;;;;;5037083;28;20076;-49
2021/12/13 02:34:03;;;;;;;4.65;3.10;;;7.50;96.30;;;;;;5040174;28;20353;-49
2021/12/13 02:36:37;;;;;;;8.07;3.35;;;7.50;96.30;;;;;;4998195;28;20340;-49
2021/12/13 02:39:21;;;;;;;6.88;3.00;;;7.50;96.30;;;;;;4999020;28;20437;-49
2021/12/13 02:41:47;;;;;;;5.72;4.03;;;7.50;96.30;;;;;;4992854;28;20034;-49
2021/12/13 02:44:18;;;;;;;5.65;3.72;;;7.50;96.30;;;;;;5001213;28;20042;-50
2021/12/13 02:46:46;;;;;;;6.07;3.22;;;7.50;96.70;;;;;;4995087;28;20026;-49
2021/12/13 02:49:16;;;;;;;6.88;3.00;;;7.50;96.40;;;;;;4999864;28;20038;-49
2021/12/13 02:51:41;;;;;;;5.90;3.17;;;7.50;96.40;;;;;;4990583;28;20053;-50
2021/12/13 02:54:16;;;;;;;7.32;3.45;;;7.50;96.40;;;;;;4997415;28;20034;-49
2021/12/13 02:57:20;;;;;;;5.30;2.90;;;7.50;96.40;;;;;;4995271;28;20093;-49
2021/12/13 02:59:50;;;;;;;8.63;3.08;;;7.50;96.50;;;;;;4997473;28;20129;-49
2021/12/13 03:02:21;;;;;;;5.00;3.08;;;7.50;96.40;;;;;;4999045;28;20037;-50
2021/12/13 03:04:48;;;;;;;7.65;3.30;;;7.50;96.50;;;;;;4995442;28;20323;-49
2021/12/13 03:07:20;;;;;;;5.00;3.22;;;7.50;96.50;;;;;;4995802;28;20338;-50
2021/12/13 03:09:52;;;;;;;6.82;3.45;;;7.50;96.50;;;;;;5005028;28;20045;-49
2021/12/13 03:12:20;;;;;;;6.85;3.22;;;7.50;96.50;;;;;;5044293;28;20029;-50
2021/12/13 03:14:56;;;;;;;6.13;3.22;;;7.50;96.50;;;;;;5034090;28;20033;-50
2021/12/13 03:17:40;;;;;;;6.68;3.28;;;7.50;96.50;;;;;;5025374;28;20049;-50
2021/12/13 03:20:24;;;;;;;7.38;3.85;;;7.50;96.60;;;;;;5033908;28;20033;-50
2021/12/13 03:23:22;;;;;;;5.05;2.78;;;7.50;96.50;;;;;;5025664;28;20026;-50
2021/12/13 03:26:06;;;;;;;5.60;3.53;;;7.50;96.90;;;;;;5039111;28;20458;-50
2021/12/13 03:29:00;;;;;;;7.05;3.38;;;7.50;96.60;;;;;;5033433;28;20061;-50
2021/12/13 03:31:36;;;;;;;6.45;3.42;;;7.50;96.60;;;;;;5039358;28;20128;-50
2021/12/13 03:34:17;;;;;;;4.60;2.80;;;7.50;96.60;;;;;;5033016;28;20026;-49
2021/12/13 03:36:42;;;;;;;5.00;3.00;;;7.50;96.60;;;;;;5039366;28;20359;-50
2021/12/13 03:39:11;;;;;;;6.43;3.70;;;7.50;96.60;;;;;;5031419;28;20014;-50
2021/12/13 03:41:44;;;;;;;6.80;3.97;;;7.50;96.60;;;;;;5039055;28;20029;-50
2021/12/13 03:44:15;;;;;;;5.15;3.53;;;7.50;96.70;;;;;;5033106;28;20473;-50
2021/12/13 03:46:46;;;;;;;6.57;3.50;;;7.50;96.70;;;;;;5039731;28;20033;-49
2021/12/13 03:49:12;;;;;;;6.68;2.58;;;7.50;96.70;;;;;;5040685;28;20367;-50
2021/12/13 03:51:41;;;;;;;7.65;4.00;;;7.50;96.70;;;;;;5040597;28;20454;-49
2021/12/13 03:54:10;;;;;;;6.82;3.15;;;7.50;96.70;;;;;;5029014;28;20217;-50
2021/12/13 03:56:40;;;;;;;5.85;3.20;;;7.50;96.70;;;;;;5042363;28;20056;-49
2021/12/13 03:59:17;;;;;;;7.05;3.55;;;7.50;96.70;;;;;;5042750;28;20116;-49
2021/12/13 04:01:49;;;;;;;8.40;4.03;;;7.50;96.70;;;;;;5036933;28;20032;-50
2021/12/13 04:04:29;;;;;;;6.10;3.47;;;7.50;96.80;;;;;;5042149;28;20025;-49
2021/12/13 04:07:18;;;;;;;7.03;3.58;;;7.50;96.80;;;;;;5039558;28;20037;-49
2021/12/13 04:09:46;;;;;;;6.72;3.67;;;7.50;96.80;;;;;;5035420;28;20041;-50
2021/12/13 04:12:16;;;;;;;7.65;3.90;;;7.50;96.80;;;;;;5040897;28;20107;-49
2021/12/13 04:14:49;;;;;;;8.23;3.43;;;7.50;96.80;;;;;;5042611;28;20159;-49
2021/12/13 04:17:35;;;;;;;7.05;4.00;;;7.50;96.80;;;;;;5040658;28;20272;-49
2021/12/13 04:20:05;;;;;;;4.95;3.30;;;7.50;96.80;;;;;;5039120;28;20086;-49
2021/12/13 04:22:34;;;;;;;6.03;2.95;;;7.50;96.80;;;;;;5035143;28;20037;-50
2021/12/13 04:25:11;;;;;;;7.57;3.83;;;7.50;96.80;;;;;;5035622;28;20029;-49
2021/12/13 04:27:55;;;;;;;5.95;3.35;;;7.50;96.80;;;;;;5037793;28;20053;-49
2021/12/13 04:30:39;;;;;;;7.43;4.00;;;7.50;96.80;;;;;;5039211;28;20368;-50
2021/12/13 04:33:19;;;;;;;13.70;4.45;;;7.50;96.80;;;;;;5028579;28;20135;-50
2021/12/13 04:35:51;;;;;;;5.30;3.13;;;7.50;96.90;;;;;;5035423;28;20029;-50
2021/12/13 04:38:22;;;;;;;4.93;3.22;;;7.50;96.90;;;;;;5030865;28;20117;-50
2021/12/13 04:40:50;;;;;;;;;;;7.50;96.90;;;;;;5042313;28;20025;-49
2021/12/13 04:43:18;;;;;;;6.13;3.08;;;7.50;96.80;;;;;;5036336;28;19912;-49
2021/12/13 04:45:48;;;;;;;4.75;3.00;;;7.50;96.90;;;;;;5034317;28;20037;-50
2021/12/13 04:48:17;;;;;;;9.10;3.47;;;7.50;97.00;;;;;;5026679;28;20487;-50
2021/12/13 04:50:45;;;;;;;6.88;3.63;;;7.50;96.90;;;;;;5026785;28;20038;-49
2021/12/13 04:53:18;;;;;;;5.38;2.70;;;7.50;96.90;;;;;;5029118;28;20130;-49
2021/12/13 04:55:44;;;;;;;15.38;4.22;;;7.50;97.00;;;;;;5042491;28;20351;-50
2021/12/13 04:58:12;;;;;;;11.88;4.38;;;7.50;97.00;;;;;;5034573;28;20036;-50
2021/12/13 05:00:42;;;;;;;5.40;3.60;;;7.50;97.00;;;;;;5038604;28;20048;-50
2021/12/13 05:03:10;;;;;;;7.63;4.50;;;7.50;97.00;;;;;;5028497;28;20045;-50
2021/12/13 05:05:37;;;;;;;9.63;3.85;;;7.50;97.00;;;;;;5033419;28;20123;-49
2021/12/13 05:08:13;;;;;;;5.80;3.50;;;7.50;97.00;;;;;;5032850;28;20167;-50
2021/12/13 05:10:42;;;;;;;7.82;3.75;;;7.50;97.00;;;;;;5036189;28;20056;-49
2021/12/13 05:13:12;;;;;;;6.30;4.30;;;7.50;97.10;;;;;;5036133;28;20021;-49
2021/12/13 05:15:44;;;;;;;6.18;3.28;;;7.60;97.10;;;;;;5036172;28;20030;-49
2021/12/13 05:18:19;;;;;;;8.73;4.93;;;7.50;97.10;;;;;;5033023;28;20403;-49
2021/12/13 05:20:45;;;;;;;8.23;4.30;;;7.50;97.10;;;;;;5030160;28;20026;-50
2021/12/13 05:23:17;;;;;;;9.48;3.95;;;7.60;97.10;;;;;;5036180;28;20029;-49
2021/12/13 05:25:57;;;;;;;12.02;4.32;;;7.50;97.10;;;;;;5029068;28;20036;-50
2021/12/13 05:28:39;;;;;;;8.25;3.88;;;7.60;97.10;;;;;;5035765;28;20405;-50
2021/12/13 05:31:11;;;;;;;7.43;3.95;;;7.60;97.10;;;;;;5034453;28;20037;-49
2021/12/13 05:33:40;;;;;;;8.00;4.00;;;7.60;97.10;;;;;;5028486;28;20026;-50
2021/12/13 05:36:10;;;;;;;6.30;3.72;;;7.50;97.10;;;;;;5027300;28;20378;-50
2021/12/13 05:38:41;;;;;;;6.20;3.80;;;7.60;97.20;;;;;;5021119;28;20022;-50
2021/12/13 05:41:18;;;;;;;7.97;3.50;;;7.60;97.20;;;;;;5020519;28;20034;-50
2021/12/13 05:43:52;;;;;;;6.72;3.45;;;7.60;97.10;;;;;;5019856;28;20108;-50
2021/12/13 05:46:23;;;;;;;6.95;3.65;;;7.60;97.20;;;;;;5026132;28;20465;-50
2021/12/13 05:48:52;;;;;;;8.88;4.32;;;7.60;97.20;;;;;;5034221;28;20451;-50
2021/12/13 05:51:45;;;;;;;9.02;4.63;;;7.50;97.20;;;;;;5034293;28;20128;-49
2021/12/13 05:54:33;;;;;;;9.25;4.07;;;7.60;97.20;;;;;;5026893;28;20037;-50
2021/12/13 05:57:06;;;;;;;8.15;3.92;;;7.60;97.30;;;;;;5031444;28;20029;-50
2021/12/13 05:59:51;;;;;;;7.72;4.22;;;7.60;97.20;;;;;;5028529;28;20051;-50
2021/12/13 06:02:30;;;;;;;11.13;5.63;;;7.60;97.20;;;;;;5032167;28;20343;-50
2021/12/13 06:05:34;;;;;;;7.73;3.60;;;7.50;97.30;;;;;;5028634;28;20359;-50
2021/12/13 06:08:18;;;;;;;10.77;4.95;;;7.60;97.30;;;;;;5016485;28;20376;-50
2021/12/13 06:10:49;;;;;;;8.23;4.47;;;7.60;97.30;;;;;;5018649;28;20036;-49
2021/12/13 06:13:51;;;;;;;9.63;4.03;;;7.60;97.30;;;;;;5016149;28;20353;-49
2021/12/13 06:16:42;;;;;;;8.95;5.30;;;7.60;97.30;;;;;;5020081;28;20399;-49
2021/12/13 06:19:31;;;;;;;7.65;4.10;;;7.60;97.30;;;;;;5019164;28;20061;-50
2021/12/13 06:22:20;;;;;;;9.30;4.40;;;7.60;97.30;;;;;;5018983;28;20041;-50
2021/12/13 06:25:10;;;;;;;8.00;3.78;;;7.60;97.30;;;;;;5022221;28;20037;-49
2021/12/13 06:27:49;;;;;;;10.85;4.55;;;7.60;97.30;;;;;;5020240;28;20084;-50
2021/12/13 06:30:24;;;;;;;15.73;10.48;;;7.60;97.40;;;;;;5022849;28;20034;-50
2021/12/13 06:33:19;;;;;;;10.57;4.50;;;7.60;97.40;;;;;;5015766;28;20156;-50
2021/12/13 06:35:52;;;;;;;10.93;3.95;;;7.60;97.40;;;;;;4948912;29;20039;-50
2021/12/13 06:38:26;;;;;;;8.98;5.00;;;7.60;97.40;;;;;;4949147;29;20038;-49
2021/12/13 06:41:14;;;;;;;8.00;4.40;;;7.60;97.40;;;;;;4948512;28;20051;-50
2021/12/13 06:43:57;;;;;;;12.38;5.45;;;7.60;97.40;;;;;;4952947;28;20035;-50
2021/12/13 06:46:22;;;;;;;10.32;5.10;;;7.60;97.40;;;;;;4972424;28;20057;-49
2021/12/13 06:49:00;;;;;;;10.13;5.13;;;7.60;97.40;;;;;;4979163;28;20105;-49
2021/12/13 06:51:46;;;;;;;6.65;3.58;;;7.60;97.40;;;;;;4976691;28;20039;-50
2021/12/13 06:54:20;;;;;;;8.18;3.53;;;7.60;97.50;;;;;;4979797;28;20027;-49
2021/12/13 06:56:55;;;;;;;8.38;4.65;;;7.60;97.50;;;;;;4979037;28;20031;-50
2021/12/13 06:59:21;;;;;;;16.40;5.28;;;7.60;97.00;;;;;;4981983;28;20511;-50
2021/12/13 07:02:08;;;;;;;14.80;4.22;;;7.50;97.40;;;;;;4982014;28;20534;-51
2021/12/13 07:04:47;;;;;;;10.07;4.00;;;7.60;97.30;;;;;;4979341;28;20037;-50
2021/12/13 07:07:17;;;;;;;10.15;4.45;;;7.60;97.30;;;;;;4979091;28;20534;-50
2021/12/13 07:09:53;;;;;;;8.80;3.72;;;7.60;97.30;;;;;;4981486;28;20042;-50
2021/12/13 07:12:20;;;;;;;8.40;4.97;;;7.60;97.30;;;;;;5017195;28;20121;-51
2021/12/13 07:14:46;;;;;;;12.55;4.38;;;7.60;97.30;;;;;;5042081;28;20018;-50
2021/12/13 07:17:34;;;;;;;8.23;4.43;;;7.60;97.40;;;;;;5037556;28;20029;-50
2021/12/13 07:20:14;;;;;;;8.80;4.80;;;7.60;97.30;;;;;;5041440;28;20017;-50
2021/12/13 07:22:42;;;;;;;9.75;4.50;;;7.60;97.40;;;;;;5042029;28;20026;-50
2021/12/13 07:25:12;;;;;;;10.73;5.20;;;7.60;97.50;;;;;;5037833;28;20035;-50
2021/12/13 07:27:44;;;;;;;10.15;5.55;;;7.60;97.50;;;;;;5041584;28;20029;-50
2021/12/13 07:30:24;;;;;;;9.35;4.10;;;7.60;97.50;;;;;;5038078;28;20099;-50
2021/12/13 07:32:54;;;;;;;12.48;4.57;;;7.60;97.50;;;;;;5027711;28;20013;-50
2021/12/13 07:35:30;;;;;;;;;;;7.60;97.50;;;;;;5026290;28;20108;-51
2021/12/13 07:38:08;;;;;;;7.00;3.92;;;7.60;97.40;;;;;;5024820;28;19916;-50
2021/12/13 07:40:42;;;;;;;7.18;3.97;;;7.60;97.60;;;;;;5024552;28;20038;-50
2021/12/13 07:43:22;;;;;;;12.60;5.15;;;7.60;97.60;;;;;;5026084;28;20447;-50
2021/12/13 07:46:00;;;;;;;7.97;4.43;;;7.60;97.50;;;;;;5024327;28;20076;-50
2021/12/13 07:48:34;;;;;;;10.52;5.25;;;7.60;97.60;;;;;;5046361;28;20270;-51
2021/12/13 07:51:12;;;;;;;10.60;5.35;;;7.60;97.60;;;;;;5029654;28;20037;-51
2021/12/13 07:53:51;;;;;;;9.00;4.40;;;7.60;97.60;;;;;;5040644;28;20021;-50
2021/12/13 07:56:42;;;;;;;10.13;4.43;;;7.60;97.60;;;;;;5032177;28;20454;-50
2021/12/13 07:59:13;;;;;;;11.02;4.93;;;7.60;97.60;;;;;;5040167;28;20439;-51
2021/12/13 08:01:57;;;;;;;8.13;4.72;;;7.60;97.70;;;;;;5041859;28;20032;-51
2021/12/13 08:04:30;;;;;;;10.43;5.13;;;7.60;97.60;;;;;;5039055;28;20462;-51
2021/12/13 08:07:06;;;;;;;9.70;5.40;;;7.60;97.70;;;;;;5040412;28;20052;-51
2021/12/13 08:09:33;;;;;;;10.02;4.40;;;7.60;97.70;;;;;;5035485;28;20473;-50
2021/12/13 08:12:15;;;;;;;10.13;4.88;;;7.60;97.70;;;;;;5038121;28;20344;-50
2021/12/13 08:14:43;;;;;;;13.20;5.22;;;7.70;97.70;;;;;;5037915;28;20346;-50
2021/12/13 08:17:10;;;;;;;8.52;4.28;;;7.60;97.70;;;;;;5042232;28;20025;-51
2021/12/13 08:19:36;;;;;;;12.73;4.28;;;7.70;97.80;;;;;;5042424;28;20087;-50
2021/12/13 08:22:10;;;;;;;9.70;4.57;;;7.60;97.80;;;;;;5041458;28;20052;-50
2021/12/13 08:24:44;;;;;;;8.63;4.68;;;7.70;97.80;;;;;;5035231;28;20433;-50
2021/12/13 08:27:24;;;;;;;12.48;5.40;;;7.70;97.70;;;;;;5037008;28;20043;-51
2021/12/13 08:29:50;;;;;;;6.78;3.78;;;7.70;97.80;;;;;;5036761;28;20057;-51
2021/12/13 08:32:27;;;;;;;9.63;5.43;;;7.70;97.70;;;;;;5042863;28;20362;-51
2021/12/13 08:34:58;;;;;;;7.18;4.47;;;7.70;97.80;;;;;;5043059;28;20017;-51
2021/12/13 08:37:34;;;;;;;15.88;5.15;;;7.70;97.80;;;;;;5036126;28;20025;-51
2021/12/13 08:40:32;;;;;;;8.27;3.97;;;7.70;97.80;;;;;;5037349;28;20037;-51
2021/12/13 08:42:58;;;;;;;8.88;4.50;;;7.70;97.80;;;;;;5041326;28;20458;-51
2021/12/13 08:45:28;;;;;;;8.57;4.75;;;7.70;97.80;;;;;;5039571;28;20033;-51
2021/12/13 08:48:00;;;;;;;10.77;5.45;;;7.70;97.80;;;;;;5037000;28;20429;-50
2021/12/13 08:50:30;;;;;;;10.43;5.35;;;7.70;97.80;;;;;;5037617;28;20358;-50
2021/12/13 08:53:21;;;;;;;11.93;5.88;;;7.70;97.80;;;;;;5040398;28;20415;-50
2021/12/13 08:55:59;;;;;;;12.55;5.22;;;7.70;97.80;;;;;;5037694;28;20446;-51
2021/12/13 08:58:24;;;;;;;14.60;6.32;;;7.70;97.90;;;;;;5037772;28;20044;-51
2021/12/13 09:01:03;;;;;;;9.10;5.00;;;7.70;97.90;;;;;;5042108;28;20320;-51
2021/12/13 09:03:29;;;;;;;10.63;5.40;;;7.70;98.20;;;;;;5042931;28;20025;-51
2021/12/13 09:06:16;;;;;;;14.68;5.43;;;7.70;97.90;;;;;;5039387;28;20390;-50
2021/12/13 09:08:46;;;;;;;12.10;5.60;;;7.70;97.90;;;;;;5039844;28;20151;-51
2021/12/13 09:11:32;;;;;;;12.48;5.95;;;7.70;97.90;;;;;;5037909;28;20112;-51
2021/12/13 09:14:13;;;;;;;10.27;4.72;;;7.70;98.00;;;;;;5035659;28;20028;-51
2021/12/13 09:16:45;;;;;;;8.90;4.90;;;7.70;98.00;;;;;;5039494;28;20029;-51
2021/12/13 09:19:20;;;;;;;9.98;4.95;;;7.80;98.00;;;;;;5036302;28;20451;-51
2021/12/13 09:21:59;;;;;;;16.27;6.35;;;7.80;98.00;;;;;;5041049;28;20032;-51
2021/12/13 09:24:39;;;;;;;12.15;6.00;;;7.70;98.00;;;;;;5036272;28;20185;-51
2021/12/13 09:27:10;;;;;;;;;;;7.70;98.00;;;;;;5036541;28;20120;-51
2021/12/13 09:30:05;;;;;;;12.27;5.68;;;7.70;98.00;;;;;;5039530;28;19952;-51
2021/12/13 09:32:38;;;;;;;12.63;6.05;;;7.80;98.10;;;;;;5036691;28;20041;-51
2021/12/13 09:35:22;;;;;;;9.48;5.43;;;7.70;98.10;;;;;;5039626;28;20049;-51
2021/12/13 09:37:50;;;;;;;13.02;5.90;;;7.80;98.10;;;;;;5037425;28;20025;-51
2021/12/13 09:40:19;;;;;;;12.45;6.28;;;7.70;98.10;;;;;;5037781;28;20029;-51
2021/12/13 09:42:49;;;;;;;12.60;6.05;;;7.80;98.10;;;;;;5037440;28;20108;-51
2021/12/13 09:45:25;;;;;;;8.95;4.70;;;7.80;98.10;;;;;;5041832;28;20029;-51
2021/12/13 09:47:51;;;;;;;11.18;4.43;;;7.80;98.10;;;;;;5040552;28;20439;-51
2021/12/13 09:50:29;;;;;;;8.80;4.60;;;7.80;98.10;;;;;;5038041;28;20124;-51
2021/12/13 09:53:00;;;;;;;9.60;4.55;;;7.80;98.10;;;;;;5036454;28;20069;-51
2021/12/13 09:55:25;;;;;;;;;;;7.80;98.10;;;;;;5039045;28;20040;-50
2021/12/13 09:57:53;;;;;;;10.65;5.05;;;7.90;98.10;;;;;;5036303;28;19909;-50
2021/12/13 10:00:45;;;;;;;14.35;4.35;;;7.80;98.20;;;;;;5041378;28;20091;-50
2021/12/13 10:03:17;;;;;;;9.88;5.93;;;7.80;98.20;;;;;;5038917;28;20037;-50
2021/12/13 10:05:46;;;;;;;11.13;5.68;;;7.90;98.10;;;;;;5035196;28;20029;-50
2021/12/13 10:08:20;;;;;;;13.02;5.53;;;7.90;98.20;;;;;;5041347;28;20473;-50
2021/12/13 10:11:03;;;;;;;11.57;6.22;;;7.90;98.20;;;;;;5034480;28;20092;-50
2021/12/13 10:13:36;;;;;;;13.80;6.60;;;7.90;98.20;;;;;;5039017;28;20354;-51
2021/12/13 10:16:16;;;;;;;7.72;4.97;;;7.90;98.30;;;;;;5038216;28;20037;-50
2021/12/13 10:18:45;;;;;;;11.48;5.95;;;7.90;98.20;;;;;;5038657;28;20366;-51
2021/12/13 10:21:24;;;;;;;9.88;5.45;;;7.90;98.20;;;;;;5039071;28;20030;-50
2021/12/13 10:23:54;;;;;;;15.07;5.05;;;7.90;98.30;;;;;;5036995;28;20075;-50
2021/12/13 10:26:21;;;;;;;15.90;5.65;;;7.90;98.40;;;;;;5034947;28;20111;-50
2021/12/13 10:28:58;;;;;;;19.02;5.68;;;7.90;98.50;;;;;;5045316;28;20025;-51
2021/12/13 10:31:39;;;;;;;14.50;6.15;;;7.90;98.50;;;;;;5040241;28;20037;-51
2021/12/13 10:34:09;;;;;;;15.20;6.65;;;7.90;98.60;;;;;;5042398;28;20056;-51
2021/12/13 10:36:37;;;;;;;12.85;5.68;;;8.00;98.70;;;;;;5044966;28;20446;-51
2021/12/13 10:39:10;;;;;;;12.20;5.43;;;7.90;98.70;;;;;;5043582;28;20530;-51
2021/12/13 10:41:42;;;;;;;11.45;4.38;;;8.00;98.70;;;;;;5037669;28;20030;-51
2021/12/13 10:44:15;;;;;;;10.13;5.65;;;8.00;98.70;;;;;;5038433;28;20029;-50
2021/12/13 10:46:46;;;;;;;9.65;5.32;;;8.00;98.70;;;;;;5043380;28;20352;-50
2021/12/13 10:49:20;;;;;;;15.48;5.78;;;8.00;98.70;;;;;;5045194;28;20450;-50
2021/12/13 10:51:55;;;;;;;17.25;7.68;;;8.00;98.80;;;;;;5038620;28;20049;-50
2021/12/13 10:54:24;;;;;;;11.63;5.60;;;8.00;98.80;;;;;;5044208;28;20029;-50
2021/12/13 10:56:56;;;;;;;10.25;5.13;;;8.00;98.80;;;;;;5039983;28;20036;-51
2021/12/13 10:59:26;;;;;;;12.75;5.25;;;8.00;98.80;;;;;;5039379;28;20030;-50
2021/12/13 11:01:55;;;;;;;14.10;7.65;;;8.00;98.80;;;;;;5043668;28;20438;-50
2021/12/13 11:04:30;;;;;;;13.38;6.90;;;8.00;98.90;;;;;;5031552;28;20064;-50
2021/12/13 11:06:56;;;;;;;9.82;5.93;;;8.00;99.00;;;;;;5037363;28;20128;-50
2021/12/13 11:09:24;;;;;;;11.63;6.32;;;8.10;99.00;;;;;;5043151;28;20117;-50
2021/12/13 11:11:58;;;;;;;12.68;6.03;;;8.10;99.00;;;;;;5040183;28;20047;-50
2021/12/13 11:14:25;;;;;;;17.40;7.10;;;8.10;99.00;;;;;;5042066;28;20033;-50
2021/12/13 11:16:56;;;;;;;11.60;5.05;;;8.10;98.90;;;;;;5037274;28;20037;-50
2021/12/13 11:19:25;;;;;;;12.43;6.30;;;8.10;99.00;;;;;;5044140;28;20072;-50
2021/12/13 11:22:00;;;;;;;10.45;5.68;;;8.10;99.00;;;;;;5043924;28;20467;-50
2021/12/13 11:24:32;;;;;;;10.82;5.13;;;8.10;99.00;;;;;;5037701;28;20341;-51
2021/12/13 11:27:03;;;;;;;21.25;7.05;;;8.10;98.90;;;;;;5038010;28;20075;-50
2021/12/13 11:29:29;;;;;;;13.40;6.03;;;8.10;99.00;;;;;;5042391;28;20040;-50
2021/12/13 11:32:00;;;;;;;14.25;6.45;;;8.10;99.00;;;;;;5044471;28;20040;-50
2021/12/13 11:34:51;;;;;;;13.35;6.00;;;8.20;99.20;;;;;;5037752;28;20355;-50
2021/12/13 11:37:35;;;;;;;;;;;8.10;99.20;;;;;;5037956;28;20022;-51
2021/12/13 11:40:45;;;;;;;16.05;6.68;;;8.10;99.10;;;;;;5040800;28;20321;-51
2021/12/13 11:43:31;;;;;;;17.15;6.78;;;8.20;99.30;;;;;;5035583;28;20083;-51
2021/12/13 11:46:30;;;;;;;13.52;7.00;;;8.20;99.30;;;;;;5037544;28;20041;-50
2021/12/13 11:49:24;;;;;;;20.80;7.90;;;8.20;99.30;;;;;;5042149;28;20059;-50
2021/12/13 11:52:23;;;;;;;21.95;8.00;;;8.20;99.40;;;;;;5042787;28;20033;-50
2021/12/13 11:55:35;;;;;;;10.95;6.00;;;8.20;99.40;;;;;;5037924;28;20030;-51
2021/12/13 11:58:03;;;;;;;13.07;6.10;;;8.20;99.30;;;;;;5036173;28;20454;-50
2021/12/13 12:01:18;;;;;;;13.80;6.47;;;8.20;99.40;;;;;;5044375;28;20056;-50
2021/12/13 12:04:12;;;;;;;13.32;6.72;;;8.20;99.40;;;;;;5043959;28;20029;-50
2021/12/13 12:07:12;;;;;;;15.15;7.15;;;8.20;99.30;;;;;;5043319;28;20055;-50
2021/12/13 12:10:11;;;;;;;15.35;6.88;;;8.20;99.40;;;;;;5038803;28;20030;-50
2021/12/13 12:13:11;;;;;;;18.38;6.78;;;8.20;99.40;;;;;;5033455;28;20056;-51
2021/12/13 12:15:43;;;;;;;13.30;6.22;;;8.20;99.50;;;;;;5035096;28;20033;-51
2021/12/13 12:18:13;;;;;;;14.85;6.55;;;8.30;99.60;;;;;;5038226;28;20333;-50
2021/12/13 12:20:42;;;;;;;19.80;7.78;;;8.20;99.50;;;;;;5042171;28;20362;-50
2021/12/13 12:23:11;;;;;;;20.20;7.75;;;8.30;99.60;;;;;;5043460;28;20413;-50
2021/12/13 12:25:39;;;;;;;9.82;5.50;;;8.20;99.60;;;;;;5039786;28;20022;-50
2021/12/13 12:28:14;;;;;;;13.60;5.93;;;8.30;99.70;;;;;;5034174;28;20072;-50
2021/12/13 12:30:49;;;;;;;19.45;7.88;;;8.30;99.60;;;;;;5042914;28;20029;-51
2021/12/13 12:33:28;;;;;;;17.63;6.75;;;8.30;99.80;;;;;;5036490;28;20022;-50
2021/12/13 12:35:55;;;;;;;14.30;6.18;;;8.30;99.70;;;;;;5040931;28;20219;-50
2021/12/13 12:38:24;;;;;;;17.88;6.82;;;8.30;99.60;;;;;;5042899;28;20282;-50
2021/12/13 12:41:08;;;;;;;20.02;6.65;;;8.30;99.50;;;;;;5043840;28;20082;-50
2021/12/13 12:43:52;;;;;;;15.88;5.82;;;8.30;99.60;;;;;;5038323;28;20116;-50
2021/12/13 12:46:18;;;;;;;17.35;5.75;;;8.30;99.60;;;;;;5039456;28;20097;-50
2021/12/13 12:48:51;;;;;;;24.17;8.40;;;8.30;99.80;;;;;;5040521;28;20037;-50
2021/12/13 12:51:23;;;;;;;19.33;9.02;;;8.30;99.90;;;;;;5032209;28;20466;-50
2021/12/13 12:53:55;;;;;;;13.60;6.75;;;8.30;99.90;;;;;;5042255;28;20108;-50
2021/12/13 12:56:47;;;;;;;21.45;8.73;;;8.30;99.80;;;;;;5042156;28;20031;-51
2021/12/13 12:59:22;;;;;;;15.23;5.38;;;8.30;99.90;;;;;;5033415;28;20025;-51
2021/12/13 13:02:04;;;;;;;16.58;7.32;;;8.30;99.90;;;;;;5037617;28;20075;-50
2021/12/13 13:04:38;;;;;;;19.52;9.18;;;8.40;99.90;;;;;;5039466;28;20029;-51
2021/12/13 13:07:06;;;;;;;20.73;9.23;;;8.30;99.90;;;;;;5037604;28;20104;-51
2021/12/13 13:09:48;;;;;;;12.88;6.50;;;8.30;99.90;;;;;;5041129;28;20108;-51
2021/12/13 13:12:28;;;;;;;18.15;6.70;;;8.40;99.90;;;;;;5034400;28;20041;-51
2021/12/13 13:15:30;;;;;;;13.25;5.60;;;8.40;99.90;;;;;;5042524;28;20025;-51
2021/12/13 13:18:11;;;;;;;14.70;6.32;;;8.40;99.80;;;;;;4997791;28;20038;-51
2021/12/13 13:20:43;;;;;;;13.95;6.70;;;8.40;99.50;;;;;;4997211;28;20044;-51
2021/12/13 13:23:11;;;;;;;30.90;8.43;;;8.40;99.60;;;;;;4997721;28;20500;-50
2021/12/13 13:25:50;;;;;;;16.45;7.63;;;8.40;99.80;;;;;;4998575;28;20463;-51
2021/12/13 13:28:48;;;;;;;17.63;6.40;;;8.40;99.80;;;;;;4997692;28;20137;-51
2021/12/13 13:31:24;;;;;;;15.52;6.97;;;8.40;99.80;;;;;;4994715;28;20305;-51
2021/12/13 13:33:56;;;;;;;20.17;7.47;;;8.40;99.70;;;;;;4997947;28;20092;-51
2021/12/13 13:36:34;;;;;;;25.67;8.00;;;8.40;99.70;;;;;;4996135;28;20041;-51
2021/12/13 13:39:13;;;;;;;25.77;7.53;;;8.40;99.80;;;;;;4998281;28;20133;-51
2021/12/13 13:41:39;;;;;;;16.07;7.60;;;8.40;99.70;;;;;;4997556;28;20034;-51
2021/12/13 13:44:15;;;;;;;19.08;7.10;;;8.40;99.80;;;;;;4995979;28;20089;-51